Latest Weather Observations for Albany Airport

IDW60801

Issued at 7:35 pm WST Thursday 21 August 2014 (issued every 30 minutes, with the page automatically refreshed every 10 minutes)

About weather observations | Map of weather stations | Latest weather observations for WA | Other Formats
Station Details ID: 009999 Name: ALBANY AIRPORT Lat: -34.94 Lon: 117.82 Height: 68.4 m
Data from the previous 72 hours. | See also: Recent months at Albany Airport
Date/Time
WST
Temp
°C
App
Temp
°C
Dew
Point
Rel
Hum
%
Delta-T
°C
Wind Press
QNH
hPa
Press
MSL
hPa
Rain
since 9 am
mm
Dir
 
Spd
km/h
Gust
km/h
Spd
kts
Gust
kts
21/07:30pm 11.3 8.9 9.9 91 0.7 NNW 13 15 7 8 1010.9 - 1.6
21/07:00pm 11.3 9.3 10.1 92 0.6 NW 11 13 6 7 1010.5 - 1.6
21/06:30pm 11.2 9.3 10.6 96 0.3 N 11 13 6 7 1010.2 - 1.6
21/06:00pm 11.7 10.3 10.9 95 0.4 NW 9 11 5 6 1009.9 1010.1 1.6
21/05:30pm 13.3 11.3 11.6 89 0.9 WNW 13 17 7 9 1009.7 - 1.6
21/05:21pm 13.6 10.8 11.5 87 1.1 WNW 17 22 9 12 1009.6 - 1.6
21/05:11pm 13.9 10.6 11.5 85 1.3 WNW 20 30 11 16 1009.4 - 1.6
21/05:00pm 14.5 11.7 11.3 81 1.7 WNW 17 24 9 13 1009.6 - 1.6
21/04:30pm 14.7 11.9 11.5 81 1.7 W 17 22 9 12 1009.0 - 1.6
21/04:00pm 14.6 12.0 12.0 84 1.4 W 17 24 9 13 1008.7 - 1.6
21/03:30pm 14.4 11.7 12.8 90 0.9 W 19 26 10 14 1008.5 - 1.6
21/03:15pm 14.1 11.4 12.8 92 0.7 W 19 26 10 14 1008.5 - 1.6
21/03:00pm 13.7 10.8 12.8 94 0.5 W 20 30 11 16 1008.4 1008.6 1.6
21/02:30pm 13.2 9.0 12.5 95 0.4 W 26 35 14 19 1008.1 - 1.6
21/02:00pm 13.2 9.4 12.5 95 0.4 WSW 24 35 13 19 1007.9 - 1.0
21/01:30pm 14.5 10.6 13.2 92 0.7 W 26 37 14 20 1007.4 - 0.2
21/01:00pm 14.6 11.1 13.3 92 0.7 W 24 33 13 18 1007.3 - 0.2
21/12:30pm 15.1 11.8 13.9 92 0.7 WSW 24 32 13 17 1007.2 - 0.0
21/12:16pm 15.1 11.8 13.9 92 0.7 WSW 24 33 13 18 1007.1 - 0.0
21/12:00pm 18.0 13.2 10.2 60 4.2 WNW 26 37 14 20 1006.8 1007.0 0.0
21/11:30am 18.5 11.8 9.7 56 4.7 NW 35 48 19 26 1006.6 - 0.0
21/11:00am 19.2 14.0 10.3 56 4.8 NW 28 39 15 21 1006.6 - 0.0
21/10:30am 18.4 13.2 10.4 59 4.3 NW 28 37 15 20 1006.7 - 0.0
21/10:00am 17.4 11.7 11.1 66 3.4 WNW 32 48 17 26 1006.9 - 0.0
21/09:30am 16.7 12.0 13.3 80 1.9 WNW 30 44 16 24 1006.8 - 0.0
21/09:00am 15.1 12.3 14.4 96 0.4 WNW 22 32 12 17 1006.7 1006.9 1.2
21/08:57am 15.1 12.0 14.4 96 0.4 NW 24 32 13 17 1006.7 - 1.0
21/08:30am 15.4 12.7 13.4 88 1.1 NW 20 26 11 14 1006.2 - 0.8
21/08:00am 15.0 10.7 13.2 89 1.0 N 28 37 15 20 1005.3 - 0.8
21/07:30am 14.6 9.6 13.3 92 0.7 N 32 50 17 27 1004.8 - 0.8
21/06:30am 14.6 6.7 12.6 88 1.1 N 46 65 25 35 1003.0 - 0.0
21/06:20am 15.0 5.1 12.3 84 1.5 N 56 70 30 38 1003.0 - 0.0
21/06:07am 15.0 9.6 12.1 83 1.6 N 32 54 17 29 1003.3 - 0.0
21/06:00am 15.2 10.4 11.7 79 1.9 N 28 41 15 22 1003.7 1003.9 0.0
21/05:40am 14.8 10.0 11.5 80 1.8 N 28 46 15 25 1003.9 - 0.0
21/05:30am 15.3 9.9 10.8 74 2.4 N 30 41 16 22 1004.4 - 0.0
21/05:00am 15.2 10.2 10.9 75 2.3 N 28 43 15 23 1005.2 - 0.0
21/04:30am 15.1 9.3 10.8 75 2.3 N 32 43 17 23 1005.4 - 0.0
21/04:00am 14.8 9.4 10.9 77 2.1 N 30 41 16 22 1005.6 - 0.0
21/03:30am 15.0 9.9 10.7 75 2.3 N 28 37 15 20 1005.9 - 0.0
21/03:00am 14.7 9.6 10.7 77 2.1 N 28 39 15 21 1006.5 1006.7 0.0
21/02:30am 14.4 10.1 10.6 78 2.0 N 24 37 13 20 1007.1 - 0.0
21/02:00am 14.5 10.1 10.5 77 2.1 N 24 35 13 19 1007.6 - 0.0
21/01:30am 14.8 10.0 10.4 75 2.3 N 26 35 14 19 1008.1 - 0.0
21/01:00am 14.5 11.1 10.7 78 2.0 N 19 24 10 13 1008.5 - 0.0
21/12:30am 13.4 10.8 10.7 84 1.4 N 15 19 8 10 1009.1 - 0.0
21/12:00am 13.3 11.2 11.0 86 1.2 N 13 20 7 11 1009.5 1009.7 0.0
 
Date/Time
WST
Temp
°C
App
Temp
°C
Dew
Point
Rel
Hum
%
Delta-T
°C
Wind Press
QNH
hPa
Press
MSL
hPa
Rain
since 9 am
mm
Dir
 
Spd
km/h
Gust
km/h
Spd
kts
Gust
kts
20/11:30pm 13.3 10.3 10.8 85 1.3 N 17 20 9 11 1010.0 - 0.0
20/11:00pm 13.3 10.2 10.2 81 1.6 N 17 20 9 11 1010.6 - 0.0
20/10:30pm 13.7 10.6 10.2 79 1.8 N 17 20 9 11 1010.9 - 0.0
20/10:00pm 14.8 11.1 10.2 74 2.4 N 20 37 11 20 1011.4 - 0.0
20/09:30pm 15.1 12.2 11.0 76 2.2 N 17 22 9 12 1011.7 - 0.0
20/09:00pm 14.9 11.9 10.5 75 2.3 N 17 22 9 12 1011.8 1011.9 0.0
20/08:30pm 15.6 12.1 10.1 70 2.9 NNW 19 24 10 13 1011.9 - 0.0
20/08:00pm 15.6 12.5 10.3 70 2.8 N 17 19 9 10 1011.9 - 0.0
20/07:30pm 12.7 10.3 10.0 84 1.4 N 13 17 7 9 1011.7 - 0.0
20/07:00pm 13.0 10.6 9.9 81 1.6 N 13 15 7 8 1011.6 - 0.0
20/06:30pm 14.4 12.5 10.4 77 2.1 NNE 11 11 6 6 1011.7 - 0.0
20/06:00pm 13.6 11.5 9.7 77 2.0 NNE 11 13 6 7 1011.4 1011.6 0.0
20/05:30pm 14.5 12.5 10.3 76 2.2 N 11 13 6 7 1011.4 - 0.0
20/05:00pm 17.6 15.1 9.6 59 4.2 N 13 17 7 9 1011.2 - 0.0
20/04:30pm 18.7 16.2 9.7 56 4.8 N 13 17 7 9 1011.4 - 0.0
20/04:00pm 19.0 15.6 9.1 52 5.2 N 17 24 9 13 1011.2 - 0.0
20/03:30pm 19.1 15.4 9.3 53 5.2 N 19 26 10 14 1011.3 - 0.0
20/03:00pm 18.5 14.5 9.2 54 4.9 NNW 20 28 11 15 1011.9 1012.0 0.0
20/02:30pm 18.8 15.4 9.1 53 5.1 NNW 17 22 9 12 1011.9 - 0.0
20/02:00pm 18.6 14.4 8.4 51 5.3 NNW 20 28 11 15 1011.9 - 0.0
20/01:30pm 20.1 16.7 9.2 49 5.8 NNW 17 26 9 14 1011.9 - 0.0
20/01:00pm 19.0 15.4 9.8 55 4.9 NW 19 20 10 11 1012.3 - 0.0
20/12:30pm 18.4 14.8 10.0 58 4.5 NNW 19 24 10 13 1012.7 - 0.0
20/12:00pm 18.3 15.8 10.9 62 4.0 NW 15 22 8 12 1013.3 1013.4 0.0
20/11:30am 17.0 14.2 11.3 69 3.1 NW 17 20 9 11 1013.7 - 0.0
20/11:00am 17.1 13.7 11.2 68 3.2 NW 20 24 11 13 1014.0 - 0.0
20/10:30am 16.8 14.9 11.7 72 2.8 NW 13 20 7 11 1014.1 - 0.0
20/10:00am 16.1 14.8 12.5 79 2.0 NW 11 17 6 9 1014.2 - 0.0
20/09:30am 14.4 12.9 12.0 85 1.3 WNW 11 15 6 8 1014.5 - 0.0
20/09:00am 13.2 12.0 11.5 89 0.9 NNW 9 13 5 7 1014.7 1014.9 0.4
20/08:30am 11.4 10.3 10.6 95 0.4 N 7 11 4 6 1014.6 - 0.2
20/08:00am 8.9 7.5 8.9 100 0.0 NNE 6 7 3 4 1014.6 - 0.2
20/07:51am 8.2 6.4 8.0 99 0.1 NNE 7 9 4 5 1014.5 - 0.2
20/07:30am 7.1 5.3 7.1 100 0.0 NE 6 9 3 5 1014.4 - 0.2
20/07:10am 6.6 4.7 6.6 100 0.0 NNE 6 7 3 4 1014.2 - 0.2
20/07:00am 6.5 4.6 6.5 100 0.0 N 6 7 3 4 1014.2 - 0.2
20/06:50am 6.6 5.8 6.6 100 0.0 CALM 0 0 0 0 1014.1 - 0.2
20/06:42am 6.9 5.4 6.9 100 0.0 WNW 4 7 2 4 1014.1 - 0.2
20/06:30am 6.9 5.0 6.9 100 0.0 N 6 7 3 4 1014.1 - 0.2
20/06:24am 6.6 4.7 6.6 100 0.0 NE 6 7 3 4 1014.1 - 0.2
20/06:00am 7.4 5.7 7.4 100 0.0 N 6 7 3 4 1013.9 1014.0 0.2
20/05:30am 6.9 5.0 6.9 100 0.0 NE 6 6 3 3 1013.8 - 0.2
20/05:00am 6.0 3.9 5.8 99 0.1 NE 6 6 3 3 1013.8 - 0.2
20/04:30am 6.4 3.9 6.4 100 0.0 NNE 9 9 5 5 1013.8 - 0.2
20/04:00am 7.4 5.7 7.4 100 0.0 NW 6 7 3 4 1014.0 - 0.2
20/03:30am 7.6 5.7 7.6 100 0.0 WNW 7 9 4 5 1014.4 - 0.2
20/03:25am 7.3 5.3 7.1 99 0.1 WNW 7 9 4 5 1014.5 - 0.2
20/03:05am 7.5 5.6 7.5 100 0.0 N 7 13 4 7 1014.6 - 0.2
20/03:00am 7.8 6.2 7.8 100 0.0 NNE 6 7 3 4 1014.6 1014.8 0.2
20/02:30am 7.9 6.2 7.7 99 0.1 NNE 6 7 3 4 1014.6 - 0.2
20/02:00am 8.1 6.0 8.1 100 0.0 NE 9 11 5 6 1014.7 - 0.2
20/01:30am 8.8 6.8 8.6 99 0.1 NE 9 11 5 6 1015.1 - 0.2
20/01:00am 9.3 7.5 9.3 100 0.0 NE 9 11 5 6 1015.3 - 0.2
20/12:30am 9.9 8.1 9.5 97 0.2 NE 9 11 5 6 1015.5 - 0.2
20/12:00am 10.5 8.5 10.1 97 0.2 NE 11 15 6 8 1015.8 1016.0 0.2
 
Date/Time
WST
Temp
°C
App
Temp
°C
Dew
Point
Rel
Hum
%
Delta-T
°C
Wind Press
QNH
hPa
Press
MSL
hPa
Rain
since 9 am
mm
Dir
 
Spd
km/h
Gust
km/h
Spd
kts
Gust
kts
19/11:30pm 10.0 7.8 9.4 96 0.3 NE 11 13 6 7 1015.9 - 0.2
19/11:00pm 10.3 8.1 9.5 95 0.4 NE 11 13 6 7 1016.0 - 0.2
19/10:30pm 10.6 8.6 10.2 97 0.2 NE 11 11 6 6 1016.1 - 0.2
19/10:00pm 10.3 8.2 9.9 97 0.2 ENE 11 11 6 6 1016.2 - 0.2
19/09:30pm 9.6 7.7 9.2 97 0.2 NE 9 11 5 6 1016.3 - 0.2
19/09:00pm 10.7 9.5 10.3 97 0.2 N 7 7 4 4 1016.6 1016.8 0.2
19/08:30pm 11.4 9.9 10.4 94 0.5 NE 9 11 5 6 1016.3 - 0.2
19/08:00pm 11.7 9.8 10.5 92 0.6 NE 11 13 6 7 1016.1 - 0.2
19/07:30pm 12.5 10.0 11.0 90 0.8 ENE 15 17 8 9 1016.0 - 0.2
19/07:00pm 11.9 10.4 10.5 91 0.7 ENE 9 11 5 6 1015.9 - 0.2
19/06:30pm 12.5 11.0 10.6 88 1.0 ESE 9 11 5 6 1015.6 - 0.2
19/06:00pm 13.4 11.6 10.9 85 1.3 ESE 11 13 6 7 1015.6 1015.8 0.2
19/05:30pm 15.2 13.1 11.3 77 2.1 ESE 13 17 7 9 1015.4 - 0.2
19/05:00pm 15.5 13.5 11.6 77 2.1 SE 13 17 7 9 1015.0 - 0.2
19/04:30pm 16.4 14.4 11.4 72 2.7 SE 13 17 7 9 1014.7 - 0.2
19/04:00pm 17.3 15.7 11.6 69 3.1 SSE 11 17 6 9 1014.6 - 0.2
19/03:30pm 17.5 15.8 11.2 66 3.4 ESE 11 13 6 7 1014.4 - 0.2
19/03:00pm 17.8 15.6 10.7 63 3.8 ESE 13 17 7 9 1014.3 1014.5 0.2
19/02:30pm 17.6 16.0 10.3 62 3.9 ESE 9 13 5 7 1014.3 - 0.2
19/02:00pm 18.2 15.9 10.4 60 4.2 E 13 17 7 9 1014.2 - 0.2
19/01:30pm 18.3 17.1 10.3 59 4.3 E 7 13 4 7 1014.2 - 0.2
19/01:00pm 18.3 17.2 10.7 61 4.1 NE 7 13 4 7 1014.3 - 0.2
19/12:30pm 16.6 14.7 10.4 67 3.3 E 11 15 6 8 1014.7 - 0.2
19/12:00pm 16.2 14.4 10.8 70 2.9 ENE 11 15 6 8 1014.9 1015.1 0.2
19/11:30am 16.4 14.2 10.8 69 3.0 E 13 19 7 10 1014.9 - 0.2
19/11:00am 16.8 14.4 11.5 71 2.9 E 15 19 8 10 1015.2 - 0.2
19/10:30am 15.0 13.6 10.9 76 2.2 E 9 13 5 7 1015.5 - 0.2
19/10:00am 15.3 14.5 11.8 79 1.9 ESE 7 11 4 6 1015.5 - 0.2
19/09:30am 14.4 14.3 12.2 87 1.2 E 4 11 2 6 1015.5 - 0.2
19/09:00am 12.8 12.9 12.8 100 0.0 ENE 4 7 2 4 1015.3 1015.5 0.8
19/08:30am 12.0 11.3 12.0 100 0.0 NE 7 7 4 4 1014.9 - 0.8
19/08:00am 11.7 10.9 11.7 100 0.0 NE 7 9 4 5 1014.7 - 0.8
19/07:56am 11.7 10.9 11.7 100 0.0 ENE 7 9 4 5 1014.7 - 0.8
19/07:42am 11.8 11.5 11.4 97 0.2 SE 4 7 2 4 1014.6 - 0.8
19/07:30am 11.7 12.2 11.5 99 0.1 CALM 0 0 0 0 1014.4 - 0.8
19/07:25am 10.9 11.1 10.7 99 0.1 CALM 0 0 0 0 1014.4 - 0.8
19/07:00am 10.3 10.3 9.9 97 0.2 CALM 0 0 0 0 1014.0 - 0.8
19/06:52am 11.0 11.3 10.8 99 0.1 CALM 0 2 0 1 1013.9 - 0.8
19/06:30am 11.5 10.8 11.3 99 0.1 ESE 6 9 3 5 1013.3 - 0.8
19/06:00am 11.6 10.8 11.2 97 0.2 ESE 6 7 3 4 1013.0 1013.1 0.8
19/05:37am 11.6 10.7 11.4 99 0.1 SSE 7 9 4 5 1012.8 - 0.8
19/05:30am 11.6 10.9 11.4 99 0.1 SE 6 7 3 4 1012.9 - 0.8
19/05:00am 11.6 10.7 11.4 99 0.1 ESE 7 9 4 5 1012.8 - 0.8
19/04:30am 11.5 11.2 11.3 99 0.1 SSE 4 7 2 4 1012.6 - 0.8
19/04:00am 11.4 11.8 11.2 99 0.1 CALM 0 0 0 0 1012.4 - 0.8
19/03:30am 11.3 11.7 11.1 99 0.1 CALM 0 6 0 3 1012.2 - 0.8
19/03:00am 10.9 10.4 10.9 100 0.0 WNW 4 7 2 4 1012.0 1012.1 0.8
19/02:41am 10.9 9.4 10.7 99 0.1 WNW 9 11 5 6 1011.9 - 0.8
19/02:30am 10.5 8.5 10.3 99 0.1 NW 11 11 6 6 1011.8 - 0.8
19/02:00am 11.5 10.2 11.3 99 0.1 NW 9 13 5 7 1011.9 - 0.8
19/01:37am 11.7 10.1 11.5 99 0.1 NW 11 13 6 7 1011.9 - 0.8
19/01:30am 11.7 10.5 11.5 99 0.1 NW 9 13 5 7 1011.9 - 0.8
19/01:11am 11.8 10.5 11.4 97 0.2 NW 9 13 5 7 1012.0 - 0.8
19/01:00am 11.8 10.2 11.4 97 0.2 NNW 11 13 6 7 1011.9 - 0.8
19/12:30am 12.0 10.9 11.8 99 0.1 NNW 9 13 5 7 1011.8 - 0.6
19/12:07am 12.3 10.4 11.9 97 0.2 N 13 15 7 8 1011.7 - 0.6
19/12:03am 12.3 10.4 11.9 97 0.2 N 13 17 7 9 1011.7 - 0.6
19/12:00am 12.3 10.5 12.1 99 0.1 N 13 17 7 9 1011.7 1011.8 0.6
 
Date/Time
WST
Temp
°C
App
Temp
°C
Dew
Point
Rel
Hum
%
Delta-T
°C
Wind Press
QNH
hPa
Press
MSL
hPa
Rain
since 9 am
mm
Dir
 
Spd
km/h
Gust
km/h
Spd
kts
Gust
kts
18/11:51pm 12.4 10.6 12.2 99 0.1 N 13 15 7 8 1011.6 - 0.6
18/11:50pm 12.4 10.6 12.2 99 0.1 N 13 15 7 8 1011.6 - 0.6
18/11:30pm 12.5 10.4 12.3 99 0.1 N 15 17 8 9 1011.3 - 0.6
18/11:00pm 12.3 10.0 11.7 96 0.3 NE 15 20 8 11 1011.2 - 0.4
18/10:30pm 12.4 9.6 11.5 94 0.5 NE 17 22 9 12 1011.3 - 0.4
18/10:23pm 12.3 9.9 11.5 95 0.4 NE 15 19 8 10 1011.2 - 0.4
18/10:20pm 12.3 9.9 11.5 95 0.4 NE 15 19 8 10 1011.2 - 0.4
18/10:00pm 12.4 9.9 11.1 92 0.7 ENE 15 22 8 12 1011.2 - 0.4
18/09:30pm 11.7 9.7 10.1 90 0.8 E 11 15 6 8 1011.4 - 0.4
18/09:00pm 11.5 9.1 9.9 90 0.8 ENE 13 15 7 8 1011.3 1011.5 0.4
18/08:30pm 12.1 9.7 10.2 88 1.0 ENE 13 15 7 8 1011.3 - 0.4
18/08:00pm 13.1 10.8 10.6 85 1.3 ENE 13 15 7 8 1011.1 - 0.4

Other Formats:

Comma delimited format used in spreadsheet applications
http://www.bom.gov.au/fwo/IDW60801/IDW60801.94802.axf

JavaScript Object Notation format (JSON) in row-major order
http://www.bom.gov.au/fwo/IDW60801/IDW60801.94802.json